Terminal Aerodrome Forecast
Issued by NWS

Home | Current Version | Previous Version | Text Only | Print | Product List | Glossary On
Versions: 1 2 3 4 5 6 7 8 9 10 11 12 13 14 15 16
000
FTAK31 PAFA 261125
TAFAFA
TAF
PAFA 261125Z 2612/2718 22004KT P6SM -RA SCT025 BKN045 OVC060
     FM261700 26004KT P6SM VCSH SCT045 BKN090
     FM270100 VRB04KT P6SM SCT090 BKN200=

USA.gov is the U.S. government's official web portal to all federal, state and local government web resources and services.